createdAt,value
2023-05-12T00:00:57.895Z,21.53
2023-05-12T00:01:57.945Z,21.53
2023-05-12T00:02:58.136Z,21.53
2023-05-12T00:03:58.325Z,21.53
2023-05-12T00:04:58.258Z,21.53
2023-05-12T00:05:58.251Z,21.52
2023-05-12T00:06:58.314Z,21.53
2023-05-12T00:07:58.385Z,21.53
2023-05-12T00:09:01.286Z,21.52
2023-05-12T00:09:58.467Z,21.52
2023-05-12T00:10:58.471Z,21.52
2023-05-12T00:11:58.496Z,21.52
2023-05-12T00:12:58.496Z,21.52
2023-05-12T00:13:58.542Z,21.53
2023-05-12T00:14:58.499Z,21.52
2023-05-12T00:15:58.568Z,21.51
2023-05-12T00:16:58.528Z,21.51
2023-05-12T00:17:58.599Z,21.51
2023-05-12T00:18:58.594Z,21.51
2023-05-12T00:19:58.671Z,21.51
2023-05-12T00:20:58.565Z,21.50
2023-05-12T00:21:58.574Z,21.50
2023-05-12T00:22:59.291Z,21.50
2023-05-12T00:23:58.597Z,21.50
2023-05-12T00:24:58.586Z,21.49
2023-05-12T00:25:58.608Z,21.50
2023-05-12T00:26:58.622Z,21.50
2023-05-12T00:27:58.646Z,21.50
2023-05-12T00:28:58.650Z,21.49
2023-05-12T00:29:58.664Z,21.49
2023-05-12T00:30:58.749Z,21.49
2023-05-12T00:31:58.802Z,21.49
2023-05-12T00:32:58.746Z,21.49
2023-05-12T00:33:58.696Z,21.48
2023-05-12T00:34:58.716Z,21.47
2023-05-12T00:35:58.733Z,21.47
2023-05-12T00:36:58.751Z,21.48
2023-05-12T00:37:58.757Z,21.47
2023-05-12T00:38:58.773Z,21.48
2023-05-12T00:39:58.777Z,21.48
2023-05-12T00:40:58.792Z,21.49
2023-05-12T00:41:58.813Z,21.48
2023-05-12T00:42:58.829Z,21.47
2023-05-12T00:43:58.826Z,21.48
2023-05-12T00:44:58.883Z,21.48
2023-05-12T00:45:58.947Z,21.48
2023-05-12T00:46:58.923Z,21.47
2023-05-12T00:47:59.049Z,21.47
2023-05-12T00:48:59.087Z,21.47
2023-05-12T00:49:59.169Z,21.47
2023-05-12T00:50:59.257Z,21.47
2023-05-12T00:51:59.330Z,21.47
2023-05-12T00:52:59.417Z,21.46
2023-05-12T00:53:59.510Z,21.45
2023-05-12T00:54:59.555Z,21.47
2023-05-12T00:55:59.625Z,21.47
2023-05-12T00:56:59.696Z,21.47
2023-05-12T00:57:59.779Z,21.46
2023-05-12T00:58:59.859Z,21.45
2023-05-12T00:59:59.941Z,21.46
2023-05-12T01:01:00.064Z,21.46
2023-05-12T01:02:00.099Z,21.46
2023-05-12T01:03:00.207Z,21.45
2023-05-12T01:04:00.253Z,21.45
2023-05-12T01:05:00.341Z,21.45
2023-05-12T01:06:00.450Z,21.44
2023-05-12T01:07:00.514Z,21.44
2023-05-12T01:08:00.591Z,21.44
2023-05-12T01:09:00.683Z,21.44
2023-05-12T01:10:00.789Z,21.44
2023-05-12T01:11:00.845Z,21.44
2023-05-12T01:12:01.820Z,21.44
2023-05-12T01:13:01.009Z,21.44
2023-05-12T01:14:01.101Z,21.43
2023-05-12T01:15:01.181Z,21.43
2023-05-12T01:16:01.280Z,21.42
2023-05-12T01:17:01.374Z,21.43
2023-05-12T01:18:01.537Z,21.43
2023-05-12T01:19:01.527Z,21.42
2023-05-12T01:20:02.337Z,21.43
2023-05-12T01:21:01.688Z,21.42
2023-05-12T01:22:01.769Z,21.42
2023-05-12T01:23:02.816Z,21.41
2023-05-12T01:24:01.934Z,21.41
2023-05-12T01:25:02.041Z,21.42
2023-05-12T01:26:02.120Z,21.41
2023-05-12T01:27:02.330Z,21.40
2023-05-12T01:28:02.273Z,21.41
2023-05-12T01:29:02.358Z,21.41
2023-05-12T01:30:02.428Z,21.42
2023-05-12T01:31:02.558Z,21.42
2023-05-12T01:32:02.578Z,21.41
2023-05-12T01:33:02.692Z,21.41
2023-05-12T01:34:02.816Z,21.41
2023-05-12T01:35:02.831Z,21.41
2023-05-12T01:36:02.938Z,21.41
2023-05-12T01:37:03.018Z,21.41
2023-05-12T01:38:03.096Z,21.41
2023-05-12T01:39:03.164Z,21.40
2023-05-12T01:40:03.248Z,21.40
2023-05-12T01:41:03.333Z,21.39
2023-05-12T01:42:03.407Z,21.40
2023-05-12T01:43:03.485Z,21.39
2023-05-12T01:44:03.573Z,21.39
2023-05-12T01:45:03.641Z,21.38
2023-05-12T01:46:03.734Z,21.40
2023-05-12T01:47:03.808Z,21.40
2023-05-12T01:48:03.830Z,21.39
2023-05-12T01:49:03.877Z,21.39
2023-05-12T01:50:03.944Z,21.40
2023-05-12T01:51:04.042Z,21.39
2023-05-12T01:52:04.102Z,21.39
2023-05-12T01:53:04.191Z,21.38
2023-05-12T01:54:04.261Z,21.37
2023-05-12T01:55:04.353Z,21.37
2023-05-12T01:56:04.435Z,21.37
2023-05-12T01:57:04.515Z,21.37
2023-05-12T01:58:04.590Z,21.37
2023-05-12T01:59:04.695Z,21.38
2023-05-12T02:00:04.756Z,21.38
2023-05-12T02:01:04.822Z,21.37
2023-05-12T02:02:04.926Z,21.38
2023-05-12T02:03:05.152Z,21.38
2023-05-12T02:04:05.163Z,21.37
2023-05-12T02:05:05.131Z,21.37
2023-05-12T02:06:05.193Z,21.36
2023-05-12T02:07:05.255Z,21.37
2023-05-12T02:08:05.332Z,21.37
2023-05-12T02:09:05.408Z,21.36
2023-05-12T02:10:05.475Z,21.36
2023-05-12T02:11:05.550Z,21.35
2023-05-12T02:12:05.657Z,21.35
2023-05-12T02:13:05.721Z,21.35
2023-05-12T02:14:05.803Z,21.35
2023-05-12T02:15:05.889Z,21.35
2023-05-12T02:16:05.987Z,21.35
2023-05-12T02:17:06.052Z,21.35
2023-05-12T02:18:06.195Z,21.35
2023-05-12T02:19:06.406Z,21.35
2023-05-12T02:20:06.280Z,21.34
2023-05-12T02:21:06.355Z,21.34
2023-05-12T02:22:06.425Z,21.34
2023-05-12T02:23:06.473Z,21.35
2023-05-12T02:24:07.340Z,21.35
2023-05-12T02:25:07.341Z,21.34
2023-05-12T02:26:06.719Z,21.34
2023-05-12T02:27:06.860Z,21.34
2023-05-12T02:28:06.966Z,21.33
2023-05-12T02:29:06.948Z,21.33
2023-05-12T02:30:07.019Z,21.33
2023-05-12T02:31:07.050Z,21.32
2023-05-12T02:32:07.218Z,21.32
2023-05-12T02:33:07.209Z,21.33
2023-05-12T02:34:07.231Z,21.33
2023-05-12T02:35:07.353Z,21.33
2023-05-12T02:36:07.373Z,21.32
2023-05-12T02:37:07.453Z,21.32
2023-05-12T02:38:07.533Z,21.31
2023-05-12T02:39:07.618Z,21.33
2023-05-12T02:40:07.680Z,21.32
2023-05-12T02:41:07.739Z,21.32
2023-05-12T02:42:07.779Z,21.32
2023-05-12T02:43:07.833Z,21.31
2023-05-12T02:44:07.905Z,21.32
2023-05-12T02:45:07.948Z,21.31
2023-05-12T02:46:08.018Z,21.31
2023-05-12T02:47:08.034Z,21.31
2023-05-12T02:48:08.135Z,21.31
2023-05-12T02:49:08.136Z,21.31
2023-05-12T02:50:08.170Z,21.30
2023-05-12T02:51:08.204Z,21.30
2023-05-12T02:52:08.847Z,21.30
2023-05-12T02:53:08.298Z,21.30
2023-05-12T02:54:08.330Z,21.30
2023-05-12T02:55:08.356Z,21.30
2023-05-12T02:56:08.371Z,21.30
2023-05-12T02:57:08.406Z,21.31
2023-05-12T02:58:08.444Z,21.29
2023-05-12T02:59:08.493Z,21.29
2023-05-12T03:00:09.352Z,21.29
2023-05-12T03:01:11.184Z,21.29
2023-05-12T03:02:08.747Z,21.28
2023-05-12T03:03:08.827Z,21.29
2023-05-12T03:04:08.626Z,21.29
2023-05-12T03:05:08.648Z,21.28
2023-05-12T03:06:08.659Z,21.27
2023-05-12T03:07:08.691Z,21.28
2023-05-12T03:08:08.705Z,21.27
2023-05-12T03:09:08.722Z,21.28
2023-05-12T03:10:08.733Z,21.28
2023-05-12T03:11:08.757Z,21.28
2023-05-12T03:12:08.782Z,21.28
2023-05-12T03:13:08.793Z,21.27
2023-05-12T03:14:09.358Z,21.27
2023-05-12T03:15:08.827Z,21.27
2023-05-12T03:16:08.834Z,21.27
2023-05-12T03:17:08.935Z,21.27
2023-05-12T03:18:08.938Z,21.27
2023-05-12T03:19:08.930Z,21.27
2023-05-12T03:20:08.896Z,21.26
2023-05-12T03:21:08.909Z,21.26
2023-05-12T03:22:08.941Z,21.26
2023-05-12T03:23:08.954Z,21.26
2023-05-12T03:24:08.969Z,21.26
2023-05-12T03:25:08.971Z,21.26
2023-05-12T03:26:09.000Z,21.26
2023-05-12T03:27:09.014Z,21.26
2023-05-12T03:28:09.032Z,21.26
2023-05-12T03:29:09.056Z,21.26
2023-05-12T03:30:09.151Z,21.25
2023-05-12T03:31:09.101Z,21.25
2023-05-12T03:32:09.108Z,21.25
2023-05-12T03:33:09.122Z,21.25
2023-05-12T03:34:09.132Z,21.26
2023-05-12T03:35:09.151Z,21.25
2023-05-12T03:36:09.169Z,21.24
2023-05-12T03:37:09.193Z,21.24
2023-05-12T03:38:09.240Z,21.25
2023-05-12T03:39:09.224Z,21.24
2023-05-12T03:40:09.264Z,21.24
2023-05-12T03:41:09.333Z,21.24
2023-05-12T03:42:09.290Z,21.24
2023-05-12T03:43:09.313Z,21.24
2023-05-12T03:44:09.325Z,21.24
2023-05-12T03:45:09.348Z,21.23
2023-05-12T03:46:09.412Z,21.23
2023-05-12T03:47:09.435Z,21.23
2023-05-12T03:48:09.421Z,21.23
2023-05-12T03:49:09.424Z,21.23
2023-05-12T03:50:09.453Z,21.23
2023-05-12T03:51:09.462Z,21.23
2023-05-12T03:52:09.480Z,21.23
2023-05-12T03:53:09.503Z,21.22
2023-05-12T03:54:09.556Z,21.22
2023-05-12T03:55:09.546Z,21.22
2023-05-12T03:56:09.557Z,21.22
2023-05-12T03:57:09.592Z,21.22
2023-05-12T03:58:09.602Z,21.22
2023-05-12T03:59:09.624Z,21.22
2023-05-12T04:00:09.651Z,21.22
2023-05-12T04:01:09.666Z,21.22
2023-05-12T04:02:09.734Z,21.22
2023-05-12T04:03:09.779Z,21.21
2023-05-12T04:04:09.815Z,21.21
2023-05-12T04:05:09.754Z,21.21
2023-05-12T04:06:09.782Z,21.21
2023-05-12T04:07:09.794Z,21.21
2023-05-12T04:08:09.809Z,21.21
2023-05-12T04:09:10.371Z,21.21
2023-05-12T04:10:09.859Z,21.21
2023-05-12T04:11:09.877Z,21.20
2023-05-12T04:12:09.893Z,21.19
2023-05-12T04:13:09.924Z,21.19
2023-05-12T04:14:09.936Z,21.19
2023-05-12T04:15:09.951Z,21.18
2023-05-12T04:16:10.013Z,21.18
2023-05-12T04:17:10.092Z,21.19
2023-05-12T04:18:10.009Z,21.19
2023-05-12T04:19:10.084Z,21.20
2023-05-12T04:20:10.053Z,21.20
2023-05-12T04:21:10.888Z,21.20
2023-05-12T04:22:10.079Z,21.20
2023-05-12T04:23:10.092Z,21.18
2023-05-12T04:24:10.107Z,21.18
2023-05-12T04:25:10.155Z,21.18
2023-05-12T04:26:10.153Z,21.18
2023-05-12T04:27:10.188Z,21.18
2023-05-12T04:28:12.087Z,21.18
2023-05-12T04:29:10.210Z,21.18
2023-05-12T04:30:10.899Z,21.17
2023-05-12T04:31:10.882Z,21.17
2023-05-12T04:32:10.361Z,21.17
2023-05-12T04:33:10.457Z,21.17
2023-05-12T04:34:10.320Z,21.17
2023-05-12T04:35:10.338Z,21.17
2023-05-12T04:36:10.361Z,21.17
2023-05-12T04:37:10.372Z,21.17
2023-05-12T04:38:10.391Z,21.18
2023-05-12T04:39:10.420Z,21.18
2023-05-12T04:40:10.432Z,21.17
2023-05-12T04:41:10.462Z,21.18
2023-05-12T04:42:10.467Z,21.17
2023-05-12T04:44:00.035Z,21.17
2023-05-12T04:44:11.556Z,21.17
2023-05-12T04:45:10.523Z,21.16
2023-05-12T04:46:10.605Z,21.16
2023-05-12T04:47:10.553Z,21.16
2023-05-12T04:48:11.376Z,21.16
2023-05-12T04:49:10.603Z,21.16
2023-05-12T04:50:10.678Z,21.16
2023-05-12T04:51:10.624Z,21.17
2023-05-12T04:52:10.617Z,21.17
2023-05-12T04:53:11.483Z,21.17
2023-05-12T04:54:10.669Z,21.16
2023-05-12T04:55:10.685Z,21.16
2023-05-12T04:56:10.684Z,21.16
2023-05-12T04:57:10.713Z,21.16
2023-05-12T04:58:10.737Z,21.15
2023-05-12T04:59:10.730Z,21.16
2023-05-12T05:00:10.745Z,21.16
2023-05-12T05:01:10.777Z,21.16
2023-05-12T05:02:10.792Z,21.16
2023-05-12T05:03:10.984Z,21.15
2023-05-12T05:04:10.797Z,21.16
2023-05-12T05:05:10.846Z,21.16
2023-05-12T05:06:10.859Z,21.15
2023-05-12T05:07:10.907Z,21.15
2023-05-12T05:08:10.907Z,21.16
2023-05-12T05:09:10.945Z,21.16
2023-05-12T05:10:11.009Z,21.16
2023-05-12T05:11:10.992Z,21.16
2023-05-12T05:12:11.020Z,21.16
2023-05-12T05:13:11.045Z,21.16
2023-05-12T05:14:11.136Z,21.16
2023-05-12T05:15:11.088Z,21.16
2023-05-12T05:16:11.168Z,21.16
2023-05-12T05:17:11.192Z,21.16
2023-05-12T05:18:11.219Z,21.16
2023-05-12T05:19:19.505Z,21.16
2023-05-12T05:20:12.766Z,21.15
2023-05-12T05:21:11.230Z,21.15
2023-05-12T05:22:11.223Z,21.15
2023-05-12T05:23:11.251Z,21.18
2023-05-12T05:24:11.246Z,21.20
2023-05-12T05:25:11.281Z,21.23
2023-05-12T05:26:11.275Z,21.26
2023-05-12T05:27:11.306Z,21.30
2023-05-12T05:28:11.313Z,21.33
2023-05-12T05:29:11.360Z,21.35
2023-05-12T05:30:11.332Z,21.36
2023-05-12T05:31:11.386Z,21.40
2023-05-12T05:32:11.364Z,21.44
2023-05-12T05:33:12.495Z,21.47
2023-05-12T05:34:11.964Z,21.52
2023-05-12T05:35:11.907Z,21.56
2023-05-12T05:36:11.393Z,21.60
2023-05-12T05:37:11.415Z,21.64
2023-05-12T05:38:11.423Z,21.68
2023-05-12T05:39:11.411Z,21.73
2023-05-12T05:40:11.414Z,21.76
2023-05-12T05:41:11.425Z,21.81
2023-05-12T05:42:11.443Z,21.86
2023-05-12T05:43:11.414Z,21.88
2023-05-12T05:44:12.401Z,21.92
2023-05-12T05:45:11.475Z,21.94
2023-05-12T05:46:11.598Z,21.98
2023-05-12T05:47:11.588Z,22.01
2023-05-12T05:48:11.587Z,22.03
2023-05-12T05:49:11.546Z,22.06
2023-05-12T05:50:11.560Z,22.09
2023-05-12T05:51:11.569Z,22.11
2023-05-12T05:52:11.636Z,22.13
2023-05-12T05:53:11.602Z,22.15
2023-05-12T05:54:11.609Z,22.18
2023-05-12T05:55:11.631Z,22.19
2023-05-12T05:56:11.616Z,22.22
2023-05-12T05:57:11.702Z,22.24
2023-05-12T05:58:11.662Z,22.25
2023-05-12T05:59:11.651Z,22.28
2023-05-12T06:00:11.669Z,22.29
2023-05-12T06:01:11.699Z,22.31
2023-05-12T06:02:11.743Z,22.32
2023-05-12T06:03:11.908Z,22.34
2023-05-12T06:04:12.723Z,22.36
2023-05-12T06:05:13.592Z,22.37
2023-05-12T06:06:11.762Z,22.39
2023-05-12T06:07:11.841Z,22.40
2023-05-12T06:08:11.820Z,22.41
2023-05-12T06:09:11.826Z,22.42
2023-05-12T06:10:11.860Z,22.43
2023-05-12T06:11:11.905Z,22.44
2023-05-12T06:12:11.919Z,22.45
2023-05-12T06:13:11.984Z,22.46
2023-05-12T06:14:12.009Z,22.46
2023-05-12T06:15:12.056Z,22.48
2023-05-12T06:16:12.091Z,22.49
2023-05-12T06:17:12.088Z,22.50
2023-05-12T06:18:12.163Z,22.51
2023-05-12T06:19:12.165Z,22.52
2023-05-12T06:20:12.157Z,22.53
2023-05-12T06:21:12.181Z,22.55
2023-05-12T06:22:12.210Z,22.54
2023-05-12T06:23:12.247Z,22.53
2023-05-12T06:24:12.280Z,22.49
2023-05-12T06:25:12.284Z,22.38
2023-05-12T06:26:12.312Z,22.30
2023-05-12T06:27:12.387Z,22.26
2023-05-12T06:28:12.334Z,22.27
2023-05-12T06:29:12.332Z,22.27
2023-05-12T06:30:14.355Z,22.31
2023-05-12T06:31:13.337Z,22.35
2023-05-12T06:32:12.387Z,22.36
2023-05-12T06:33:12.339Z,22.38
2023-05-12T06:34:12.334Z,22.40
2023-05-12T06:35:13.001Z,22.41
2023-05-12T06:36:12.339Z,22.43
2023-05-12T06:37:12.460Z,22.44
2023-05-12T06:38:12.341Z,22.46
2023-05-12T06:39:12.852Z,22.47
2023-05-12T06:40:12.336Z,22.49
2023-05-12T06:41:12.347Z,22.51
2023-05-12T06:42:12.407Z,22.52
2023-05-12T06:43:12.462Z,22.54
2023-05-12T06:44:12.499Z,22.54
2023-05-12T06:45:12.559Z,22.55
2023-05-12T06:46:12.696Z,22.56
2023-05-12T06:47:12.694Z,22.57
2023-05-12T06:48:12.837Z,22.59
2023-05-12T06:49:12.817Z,22.60
2023-05-12T06:50:12.895Z,22.60
2023-05-12T06:51:12.952Z,22.61
2023-05-12T06:52:13.079Z,22.62
2023-05-12T06:53:13.056Z,22.63
2023-05-12T06:54:13.109Z,22.64
2023-05-12T06:55:13.172Z,22.67
2023-05-12T06:56:13.225Z,22.68
2023-05-12T06:57:13.283Z,22.70
2023-05-12T06:58:13.358Z,22.71
2023-05-12T06:59:13.424Z,22.72
2023-05-12T07:00:13.538Z,22.73
2023-05-12T07:01:13.564Z,22.75
2023-05-12T07:02:13.593Z,22.76
2023-05-12T07:03:13.675Z,22.77
2023-05-12T07:04:13.757Z,22.79
2023-05-12T07:05:13.741Z,22.79
2023-05-12T07:06:13.835Z,22.81
2023-05-12T07:07:13.878Z,22.81
2023-05-12T07:08:13.903Z,22.82
2023-05-12T07:09:13.942Z,22.83
2023-05-12T07:10:13.977Z,22.83
2023-05-12T07:11:14.026Z,22.85
2023-05-12T07:12:14.073Z,22.85
2023-05-12T07:13:14.142Z,22.86
2023-05-12T07:14:14.205Z,22.86
2023-05-12T07:15:14.457Z,22.88
2023-05-12T07:16:14.360Z,22.90
2023-05-12T07:17:14.287Z,22.93
2023-05-12T07:18:14.318Z,22.93
2023-05-12T07:19:14.422Z,22.95
2023-05-12T07:20:14.490Z,22.95
2023-05-12T07:21:14.388Z,22.94
2023-05-12T07:22:14.425Z,22.93
2023-05-12T07:23:14.462Z,22.92
2023-05-12T07:24:14.496Z,22.90
2023-05-12T07:25:16.573Z,22.90
2023-05-12T07:26:15.362Z,22.90
2023-05-12T07:27:14.467Z,22.89
2023-05-12T07:28:14.466Z,22.90
2023-05-12T07:29:14.468Z,22.90
2023-05-12T07:30:14.434Z,22.91
2023-05-12T07:31:14.451Z,22.91
2023-05-12T07:32:14.417Z,22.92
2023-05-12T07:33:14.516Z,22.93
2023-05-12T07:34:14.404Z,22.94
2023-05-12T07:35:14.448Z,22.95
2023-05-12T07:36:14.476Z,22.96
2023-05-12T07:37:14.533Z,22.97
2023-05-12T07:38:14.602Z,23.00
2023-05-12T07:39:14.573Z,23.03
2023-05-12T07:40:14.590Z,23.05
2023-05-12T07:41:15.388Z,23.08
2023-05-12T07:42:15.457Z,23.09
2023-05-12T07:43:14.697Z,23.12
2023-05-12T07:44:14.650Z,23.14
2023-05-12T07:45:14.683Z,23.16
2023-05-12T07:46:14.720Z,23.18
2023-05-12T07:47:14.777Z,23.18
2023-05-12T07:48:14.726Z,23.19
2023-05-12T07:49:14.692Z,23.18
2023-05-12T07:50:14.768Z,23.18
2023-05-12T07:51:14.705Z,23.18
2023-05-12T07:52:14.797Z,23.19
2023-05-12T07:53:14.738Z,23.18
2023-05-12T07:54:14.815Z,23.19
2023-05-12T07:55:14.857Z,23.20
2023-05-12T07:56:14.759Z,23.21
2023-05-12T07:57:14.840Z,23.21
2023-05-12T07:58:14.788Z,23.22
2023-05-12T07:59:14.788Z,23.22
2023-05-12T08:00:15.459Z,23.22
2023-05-12T08:01:14.812Z,23.23
2023-05-12T08:02:14.846Z,23.23
2023-05-12T08:03:14.882Z,23.24
2023-05-12T08:04:14.965Z,23.24
2023-05-12T08:05:14.908Z,23.25
2023-05-12T08:06:14.850Z,23.26
2023-05-12T08:07:14.903Z,23.27
2023-05-12T08:08:14.868Z,23.27
2023-05-12T08:09:14.864Z,23.27
2023-05-12T08:10:14.941Z,23.27
2023-05-12T08:11:14.874Z,23.29
2023-05-12T08:12:14.868Z,23.32
2023-05-12T08:13:14.876Z,23.35
2023-05-12T08:14:14.862Z,23.36
2023-05-12T08:15:14.975Z,23.38
2023-05-12T08:16:14.883Z,23.37
2023-05-12T08:17:14.988Z,23.32
2023-05-12T08:18:14.892Z,23.28
2023-05-12T08:19:15.000Z,23.25
2023-05-12T08:20:14.886Z,23.22
2023-05-12T08:21:14.878Z,23.20
2023-05-12T08:22:14.958Z,23.17
2023-05-12T08:23:14.908Z,23.14
2023-05-12T08:24:14.917Z,23.12
2023-05-12T08:25:14.988Z,23.09
2023-05-12T08:26:14.968Z,23.08
2023-05-12T08:27:14.973Z,23.08
2023-05-12T08:28:15.902Z,23.05
2023-05-12T08:29:14.990Z,23.04
2023-05-12T08:30:15.021Z,23.02
2023-05-12T08:31:15.067Z,23.01
2023-05-12T08:32:16.068Z,23.00
2023-05-12T08:33:15.133Z,22.99
2023-05-12T08:34:15.096Z,22.97
2023-05-12T08:35:15.133Z,22.96
2023-05-12T08:36:16.117Z,22.95
2023-05-12T08:37:15.119Z,22.94
2023-05-12T08:38:15.099Z,22.92
2023-05-12T08:39:15.087Z,22.91
2023-05-12T08:40:15.091Z,22.90
2023-05-12T08:41:15.232Z,22.88
2023-05-12T08:42:15.084Z,22.88
2023-05-12T08:43:15.122Z,22.87
2023-05-12T08:44:15.070Z,22.86
2023-05-12T08:45:15.063Z,22.85
2023-05-12T08:46:15.111Z,22.84
2023-05-12T08:47:15.068Z,22.83
2023-05-12T08:48:15.082Z,22.82
2023-05-12T08:49:15.052Z,22.81
2023-05-12T08:50:15.066Z,22.81
2023-05-12T08:51:15.094Z,22.81
2023-05-12T08:52:15.150Z,22.79
2023-05-12T08:53:15.204Z,22.79
2023-05-12T08:54:15.259Z,22.80
2023-05-12T08:55:15.304Z,22.79
2023-05-12T08:57:15.313Z,22.79
2023-05-12T08:58:15.315Z,22.77
2023-05-12T08:59:15.306Z,22.77
2023-05-12T09:00:15.297Z,22.76
2023-05-12T09:01:15.418Z,22.75
2023-05-12T09:02:15.998Z,22.75
2023-05-12T09:03:15.316Z,22.74
2023-05-12T09:04:15.327Z,22.73
2023-05-12T09:05:15.285Z,22.73
2023-05-12T09:06:15.900Z,22.72
2023-05-12T09:07:15.267Z,22.72
2023-05-12T09:08:15.269Z,22.72
2023-05-12T09:09:15.248Z,22.72
2023-05-12T09:10:32.306Z,22.72
2023-05-12T09:11:16.223Z,22.71
2023-05-12T09:12:16.794Z,22.71
2023-05-12T09:13:15.217Z,22.71
2023-05-12T09:14:15.206Z,22.71
2023-05-12T09:15:15.328Z,22.70
2023-05-12T09:16:15.256Z,22.70
2023-05-12T09:17:15.188Z,22.69
2023-05-12T09:18:15.194Z,22.70
2023-05-12T09:19:15.286Z,22.69
2023-05-12T09:20:30.397Z,22.68
2023-05-12T09:21:16.173Z,22.68
2023-05-12T09:22:15.160Z,22.69
2023-05-12T09:23:15.255Z,22.71
2023-05-12T09:24:15.205Z,22.73
2023-05-12T09:25:15.205Z,22.75
2023-05-12T09:26:15.122Z,22.75
2023-05-12T09:27:16.001Z,22.74
2023-05-12T09:28:15.997Z,22.74
2023-05-12T09:29:24.101Z,22.74
2023-05-12T09:30:16.118Z,22.73
2023-05-12T09:31:15.515Z,22.71
2023-05-12T09:32:15.087Z,22.72
2023-05-12T09:33:15.219Z,22.72
2023-05-12T09:34:15.073Z,22.72
2023-05-12T09:35:15.088Z,22.72
2023-05-12T09:36:15.098Z,22.73
2023-05-12T09:37:15.571Z,22.72
2023-05-12T09:38:15.050Z,22.73
2023-05-12T09:39:15.062Z,22.74
2023-05-12T09:40:15.079Z,22.74
2023-05-12T09:41:15.110Z,22.74
2023-05-12T09:42:15.199Z,22.73
2023-05-12T09:43:15.804Z,22.75
2023-05-12T09:44:15.270Z,22.75
2023-05-12T09:45:15.924Z,22.76
2023-05-12T09:46:15.423Z,22.74
2023-05-12T09:47:15.455Z,22.75
2023-05-12T09:48:15.497Z,22.72
2023-05-12T09:49:15.537Z,22.66
2023-05-12T09:50:15.596Z,22.58
2023-05-12T09:51:15.674Z,22.52
2023-05-12T09:52:16.508Z,22.44
2023-05-12T09:53:15.770Z,22.37
2023-05-12T09:54:15.830Z,22.29
2023-05-12T09:55:15.809Z,22.21
2023-05-12T09:56:15.826Z,22.14
2023-05-12T09:57:15.853Z,22.07
2023-05-12T09:58:15.867Z,22.04
2023-05-12T09:59:15.900Z,22.00
2023-05-12T10:00:32.821Z,22.01
2023-05-12T10:01:22.703Z,21.97
2023-05-12T10:02:16.985Z,21.95
2023-05-12T10:03:16.149Z,21.92
2023-05-12T10:04:16.029Z,21.88
2023-05-12T10:05:16.071Z,21.87
2023-05-12T10:06:16.017Z,21.86
2023-05-12T10:07:16.024Z,21.87
2023-05-12T10:08:16.054Z,21.86
2023-05-12T10:09:16.044Z,21.87
2023-05-12T10:10:16.061Z,21.88
2023-05-12T10:11:16.064Z,21.91
2023-05-12T10:12:16.108Z,21.97
2023-05-12T10:13:16.068Z,22.02
2023-05-12T10:14:16.089Z,22.09
2023-05-12T10:15:16.089Z,22.18
2023-05-12T10:16:18.006Z,22.27
2023-05-12T10:17:16.082Z,22.34
2023-05-12T10:18:17.046Z,22.36
2023-05-12T10:19:17.045Z,22.37
2023-05-12T10:20:16.076Z,22.41
2023-05-12T10:21:16.130Z,22.45
2023-05-12T10:22:16.111Z,22.52
2023-05-12T10:23:16.066Z,22.56
2023-05-12T10:24:16.077Z,22.61
2023-05-12T10:25:16.068Z,22.65
2023-05-12T10:26:16.076Z,22.72
2023-05-12T10:27:16.052Z,22.77
2023-05-12T10:28:16.088Z,22.82
2023-05-12T10:29:17.014Z,22.86
2023-05-12T10:30:16.200Z,22.90
2023-05-12T10:31:16.250Z,22.93
2023-05-12T10:32:16.236Z,22.95
2023-05-12T10:33:16.251Z,22.97
2023-05-12T10:34:16.289Z,23.01
2023-05-12T10:35:16.339Z,23.03
2023-05-12T10:36:16.344Z,23.05
2023-05-12T10:37:17.007Z,23.07
2023-05-12T10:38:16.404Z,23.10
2023-05-12T10:39:16.545Z,23.12
2023-05-12T10:40:16.470Z,23.16
2023-05-12T10:41:16.440Z,23.18
2023-05-12T10:42:16.440Z,23.20
2023-05-12T10:43:16.450Z,23.22
2023-05-12T10:44:16.531Z,23.25
2023-05-12T10:45:16.488Z,23.26
2023-05-12T10:46:16.503Z,23.29
2023-05-12T10:47:16.469Z,23.32
2023-05-12T10:48:16.954Z,23.34
2023-05-12T10:49:16.469Z,23.36
2023-05-12T10:50:17.430Z,23.38
2023-05-12T10:51:16.460Z,23.39
2023-05-12T10:52:16.490Z,23.42
2023-05-12T10:53:16.435Z,23.44
2023-05-12T10:54:16.426Z,23.44
2023-05-12T10:55:16.583Z,23.47
2023-05-12T10:56:16.807Z,23.49
2023-05-12T10:57:18.273Z,23.50
2023-05-12T10:58:16.920Z,23.51
2023-05-12T10:59:17.213Z,23.51
2023-05-12T11:00:17.280Z,23.51
2023-05-12T11:01:17.007Z,23.50
2023-05-12T11:02:17.364Z,23.49
2023-05-12T11:03:17.400Z,23.48
2023-05-12T11:04:17.194Z,23.46
2023-05-12T11:05:17.279Z,23.44
2023-05-12T11:06:17.132Z,23.42
2023-05-12T11:07:17.172Z,23.38
2023-05-12T11:08:17.776Z,23.37
2023-05-12T11:09:17.724Z,23.34
2023-05-12T11:10:17.736Z,23.32
2023-05-12T11:11:18.098Z,23.31
2023-05-12T11:12:17.541Z,23.28
2023-05-12T11:13:16.882Z,23.27
2023-05-12T11:14:16.892Z,23.25
2023-05-12T11:15:18.169Z,23.24
2023-05-12T11:16:16.934Z,23.23
2023-05-12T11:17:16.921Z,23.21
2023-05-12T11:18:17.037Z,23.20
2023-05-12T11:19:16.945Z,23.19
2023-05-12T11:20:16.957Z,23.18
2023-05-12T11:21:16.976Z,23.17
2023-05-12T11:22:16.985Z,23.16
2023-05-12T11:23:17.576Z,23.15
2023-05-12T11:24:17.012Z,23.15
2023-05-12T11:25:17.063Z,23.14
2023-05-12T11:26:17.047Z,23.14
2023-05-12T11:27:17.062Z,23.13
2023-05-12T11:28:17.139Z,23.12
2023-05-12T11:29:17.099Z,23.12
2023-05-12T11:30:18.027Z,23.10
2023-05-12T11:31:17.131Z,23.10
2023-05-12T11:32:17.150Z,23.10
2023-05-12T11:33:17.165Z,23.09
2023-05-12T11:34:17.194Z,23.08
2023-05-12T11:35:17.231Z,23.08
2023-05-12T11:36:17.214Z,23.07
2023-05-12T11:37:17.208Z,23.06
2023-05-12T11:38:17.236Z,23.06
2023-05-12T11:39:17.330Z,23.06
2023-05-12T11:40:17.283Z,23.06
2023-05-12T11:41:17.302Z,23.05
2023-05-12T11:42:20.112Z,23.05
2023-05-12T11:43:17.296Z,23.05
2023-05-12T11:44:17.319Z,23.05
2023-05-12T11:45:17.345Z,23.05
2023-05-12T11:46:17.310Z,23.04
2023-05-12T11:47:17.299Z,23.03
2023-05-12T11:48:17.327Z,23.03
2023-05-12T11:49:17.250Z,23.03
2023-05-12T11:50:17.258Z,23.02
2023-05-12T11:51:17.243Z,23.02
2023-05-12T11:52:17.249Z,23.02
2023-05-12T11:53:17.262Z,23.02
2023-05-12T11:54:17.266Z,23.01
2023-05-12T11:55:17.302Z,23.01
2023-05-12T11:56:17.970Z,23.01
2023-05-12T11:57:17.230Z,23.00
2023-05-12T11:58:17.219Z,23.00
2023-05-12T11:59:17.226Z,22.99
2023-05-12T12:00:17.250Z,22.98
2023-05-12T12:01:17.225Z,22.97
2023-05-12T12:02:17.258Z,22.96
2023-05-12T12:03:17.609Z,22.96
2023-05-12T12:04:17.299Z,22.95
2023-05-12T12:05:17.262Z,22.95
2023-05-12T12:06:17.551Z,22.94
2023-05-12T12:07:17.246Z,22.93
2023-05-12T12:08:17.256Z,22.93
2023-05-12T12:09:17.271Z,22.93
2023-05-12T12:10:17.279Z,22.92
2023-05-12T12:11:17.264Z,22.91
2023-05-12T12:12:17.280Z,22.91
2023-05-12T12:13:17.282Z,22.90
2023-05-12T12:14:17.288Z,22.89
2023-05-12T12:15:17.329Z,22.90
2023-05-12T12:16:17.330Z,22.89
2023-05-12T12:17:17.316Z,22.88
2023-05-12T12:18:17.300Z,22.88
2023-05-12T12:19:17.395Z,22.87
2023-05-12T12:20:17.556Z,22.86
2023-05-12T12:21:18.849Z,22.86
2023-05-12T12:22:17.313Z,22.85
2023-05-12T12:23:17.350Z,22.85
2023-05-12T12:24:17.313Z,22.85
2023-05-12T12:25:17.319Z,22.84
2023-05-12T12:26:17.316Z,22.84
2023-05-12T12:27:17.316Z,22.83
2023-05-12T12:28:17.357Z,22.84
2023-05-12T12:29:17.323Z,22.83
2023-05-12T12:30:17.319Z,22.82
2023-05-12T12:31:17.361Z,22.82
2023-05-12T12:32:17.311Z,22.82
2023-05-12T12:33:20.178Z,22.82
2023-05-12T12:34:17.321Z,22.82
2023-05-12T12:35:17.299Z,22.81
2023-05-12T12:36:17.316Z,22.80
2023-05-12T12:37:17.363Z,22.81
2023-05-12T12:38:17.337Z,22.80
2023-05-12T12:39:19.811Z,22.81
2023-05-12T12:40:17.330Z,22.80
2023-05-12T12:41:17.316Z,22.80
2023-05-12T12:42:17.314Z,22.80
2023-05-12T12:43:17.330Z,22.79
2023-05-12T12:44:17.306Z,22.79
2023-05-12T12:45:20.090Z,22.79
2023-05-12T12:46:17.366Z,22.78
2023-05-12T12:47:17.407Z,22.78
2023-05-12T12:48:17.331Z,22.78
2023-05-12T12:49:17.296Z,22.78
2023-05-12T12:50:17.303Z,22.79
2023-05-12T12:51:17.288Z,22.78
2023-05-12T12:52:17.285Z,22.79
2023-05-12T12:53:17.328Z,22.79
2023-05-12T12:54:17.297Z,22.79